sensor_id;sensor_type;location;lat;lon;timestamp;temperature;humidity
2441;DHT22;1231;53.988;9.470;2022-09-25T00:01:17;13.90;90.80
2441;DHT22;1231;53.988;9.470;2022-09-25T00:03:48;13.90;90.80
2441;DHT22;1231;53.988;9.470;2022-09-25T00:06:21;13.90;90.80
2441;DHT22;1231;53.988;9.470;2022-09-25T00:08:53;14.00;90.80
2441;DHT22;1231;53.988;9.470;2022-09-25T00:11:26;14.00;90.80
2441;DHT22;1231;53.988;9.470;2022-09-25T00:13:59;14.00;90.80
2441;DHT22;1231;53.988;9.470;2022-09-25T00:16:31;14.00;90.90
2441;DHT22;1231;53.988;9.470;2022-09-25T00:19:02;14.00;90.90
2441;DHT22;1231;53.988;9.470;2022-09-25T00:21:51;14.00;90.80
2441;DHT22;1231;53.988;9.470;2022-09-25T00:24:22;14.00;90.80
2441;DHT22;1231;53.988;9.470;2022-09-25T00:26:53;14.00;90.70
2441;DHT22;1231;53.988;9.470;2022-09-25T00:29:24;14.00;90.70
2441;DHT22;1231;53.988;9.470;2022-09-25T00:31:54;14.00;90.70
2441;DHT22;1231;53.988;9.470;2022-09-25T00:34:25;14.00;90.80
2441;DHT22;1231;53.988;9.470;2022-09-25T00:36:56;14.10;90.80
2441;DHT22;1231;53.988;9.470;2022-09-25T00:39:26;14.10;90.80
2441;DHT22;1231;53.988;9.470;2022-09-25T00:41:57;14.10;90.60
2441;DHT22;1231;53.988;9.470;2022-09-25T00:44:55;14.10;90.60
2441;DHT22;1231;53.988;9.470;2022-09-25T00:47:31;14.10;90.60
2441;DHT22;1231;53.988;9.470;2022-09-25T00:53:06;14.00;90.50
2441;DHT22;1231;53.988;9.470;2022-09-25T00:55:40;14.00;90.60
2441;DHT22;1231;53.988;9.470;2022-09-25T00:58:14;14.00;90.70
2441;DHT22;1231;53.988;9.470;2022-09-25T01:00:46;14.00;90.70
2441;DHT22;1231;53.988;9.470;2022-09-25T01:03:19;14.00;90.70
2441;DHT22;1231;53.988;9.470;2022-09-25T01:05:50;14.00;90.80
2441;DHT22;1231;53.988;9.470;2022-09-25T01:08:22;14.00;90.80
2441;DHT22;1231;53.988;9.470;2022-09-25T01:10:55;14.00;90.90
2441;DHT22;1231;53.988;9.470;2022-09-25T01:13:26;14.00;90.80
2441;DHT22;1231;53.988;9.470;2022-09-25T01:18:48;14.00;90.70
2441;DHT22;1231;53.988;9.470;2022-09-25T01:21:57;14.00;90.60
2441;DHT22;1231;53.988;9.470;2022-09-25T01:24:48;14.00;90.60
2441;DHT22;1231;53.988;9.470;2022-09-25T01:33:21;14.00;90.80
2441;DHT22;1231;53.988;9.470;2022-09-25T01:35:51;14.00;90.80
2441;DHT22;1231;53.988;9.470;2022-09-25T01:38:40;14.00;90.80
2441;DHT22;1231;53.988;9.470;2022-09-25T01:41:19;14.00;90.80
2441;DHT22;1231;53.988;9.470;2022-09-25T01:44:08;14.00;90.90
2441;DHT22;1231;53.988;9.470;2022-09-25T01:46:47;14.00;90.80
2441;DHT22;1231;53.988;9.470;2022-09-25T01:49:31;14.00;90.80
2441;DHT22;1231;53.988;9.470;2022-09-25T01:52:07;14.00;90.70
2441;DHT22;1231;53.988;9.470;2022-09-25T01:54:47;14.00;90.70
2441;DHT22;1231;53.988;9.470;2022-09-25T01:57:23;14.00;90.80
2441;DHT22;1231;53.988;9.470;2022-09-25T02:00:22;14.00;90.70
2441;DHT22;1231;53.988;9.470;2022-09-25T02:03:13;14.00;90.60
2441;DHT22;1231;53.988;9.470;2022-09-25T02:05:50;14.10;90.60
2441;DHT22;1231;53.988;9.470;2022-09-25T02:08:25;14.10;90.40
2441;DHT22;1231;53.988;9.470;2022-09-25T02:11:04;14.10;90.40
2441;DHT22;1231;53.988;9.470;2022-09-25T02:13:42;14.10;90.50
2441;DHT22;1231;53.988;9.470;2022-09-25T02:16:22;14.10;90.30
2441;DHT22;1231;53.988;9.470;2022-09-25T02:18:55;14.10;90.30
2441;DHT22;1231;53.988;9.470;2022-09-25T02:24:25;14.10;90.20
2441;DHT22;1231;53.988;9.470;2022-09-25T02:26:58;14.10;90.20
2441;DHT22;1231;53.988;9.470;2022-09-25T02:29:29;14.00;89.90
2441;DHT22;1231;53.988;9.470;2022-09-25T02:32:21;14.00;89.90
2441;DHT22;1231;53.988;9.470;2022-09-25T02:34:55;14.00;89.90
2441;DHT22;1231;53.988;9.470;2022-09-25T02:37:27;14.00;89.80
2441;DHT22;1231;53.988;9.470;2022-09-25T02:39:59;14.00;89.90
2441;DHT22;1231;53.988;9.470;2022-09-25T02:42:39;14.00;89.90
2441;DHT22;1231;53.988;9.470;2022-09-25T02:45:20;14.00;89.70
2441;DHT22;1231;53.988;9.470;2022-09-25T02:50:58;14.00;89.60
2441;DHT22;1231;53.988;9.470;2022-09-25T02:58:57;14.00;89.80
2441;DHT22;1231;53.988;9.470;2022-09-25T03:01:31;14.00;89.80
2441;DHT22;1231;53.988;9.470;2022-09-25T03:04:03;14.00;89.80
2441;DHT22;1231;53.988;9.470;2022-09-25T03:06:36;14.10;89.40
2441;DHT22;1231;53.988;9.470;2022-09-25T03:09:08;14.00;89.40
2441;DHT22;1231;53.988;9.470;2022-09-25T03:11:40;14.00;89.30
2441;DHT22;1231;53.988;9.470;2022-09-25T03:14:12;14.00;89.30
2441;DHT22;1231;53.988;9.470;2022-09-25T03:16:51;14.00;89.30
2441;DHT22;1231;53.988;9.470;2022-09-25T03:19:26;14.00;89.30
2441;DHT22;1231;53.988;9.470;2022-09-25T03:21:57;14.00;89.30
2441;DHT22;1231;53.988;9.470;2022-09-25T03:24:28;14.00;89.20
2441;DHT22;1231;53.988;9.470;2022-09-25T03:26:59;13.90;89.20
2441;DHT22;1231;53.988;9.470;2022-09-25T03:29:29;13.90;89.30
2441;DHT22;1231;53.988;9.470;2022-09-25T03:32:00;13.90;89.40
2441;DHT22;1231;53.988;9.470;2022-09-25T03:34:31;13.90;89.30
2441;DHT22;1231;53.988;9.470;2022-09-25T03:37:01;13.90;89.20
2441;DHT22;1231;53.988;9.470;2022-09-25T03:39:32;13.80;89.40
2441;DHT22;1231;53.988;9.470;2022-09-25T03:42:02;13.80;89.40
2441;DHT22;1231;53.988;9.470;2022-09-25T03:44:34;13.80;89.40
2441;DHT22;1231;53.988;9.470;2022-09-25T03:47:04;13.80;89.30
2441;DHT22;1231;53.988;9.470;2022-09-25T03:49:35;13.80;89.30
2441;DHT22;1231;53.988;9.470;2022-09-25T03:52:06;13.80;89.30
2441;DHT22;1231;53.988;9.470;2022-09-25T03:54:36;13.80;89.30
2441;DHT22;1231;53.988;9.470;2022-09-25T03:57:07;13.80;89.30
2441;DHT22;1231;53.988;9.470;2022-09-25T03:59:37;13.80;89.20
2441;DHT22;1231;53.988;9.470;2022-09-25T04:02:08;13.80;89.20
2441;DHT22;1231;53.988;9.470;2022-09-25T04:04:39;13.80;89.20
2441;DHT22;1231;53.988;9.470;2022-09-25T04:07:11;13.80;89.30
2441;DHT22;1231;53.988;9.470;2022-09-25T04:09:41;13.80;89.20
2441;DHT22;1231;53.988;9.470;2022-09-25T04:12:12;13.80;89.30
2441;DHT22;1231;53.988;9.470;2022-09-25T04:14:43;13.80;89.40
2441;DHT22;1231;53.988;9.470;2022-09-25T04:17:14;13.80;89.40
2441;DHT22;1231;53.988;9.470;2022-09-25T04:19:45;13.80;89.30
2441;DHT22;1231;53.988;9.470;2022-09-25T04:22:16;13.80;89.30
2441;DHT22;1231;53.988;9.470;2022-09-25T04:24:46;13.80;89.20
2441;DHT22;1231;53.988;9.470;2022-09-25T04:27:22;13.80;89.00
2441;DHT22;1231;53.988;9.470;2022-09-25T04:29:52;13.80;88.90
2441;DHT22;1231;53.988;9.470;2022-09-25T04:32:23;13.80;89.00
2441;DHT22;1231;53.988;9.470;2022-09-25T04:35:12;13.80;89.10
2441;DHT22;1231;53.988;9.470;2022-09-25T04:37:43;13.80;89.10
2441;DHT22;1231;53.988;9.470;2022-09-25T04:40:14;13.80;89.10
2441;DHT22;1231;53.988;9.470;2022-09-25T04:42:44;13.80;89.00
2441;DHT22;1231;53.988;9.470;2022-09-25T04:45:15;13.80;88.80
2441;DHT22;1231;53.988;9.470;2022-09-25T04:47:45;13.80;88.80
2441;DHT22;1231;53.988;9.470;2022-09-25T04:50:16;13.80;89.00
2441;DHT22;1231;53.988;9.470;2022-09-25T04:52:48;13.80;89.10
2441;DHT22;1231;53.988;9.470;2022-09-25T04:55:21;13.80;89.10
2441;DHT22;1231;53.988;9.470;2022-09-25T04:57:56;13.70;89.00
2441;DHT22;1231;53.988;9.470;2022-09-25T05:00:30;13.70;89.00
2441;DHT22;1231;53.988;9.470;2022-09-25T05:03:02;13.70;89.10
2441;DHT22;1231;53.988;9.470;2022-09-25T05:05:33;13.70;89.10
2441;DHT22;1231;53.988;9.470;2022-09-25T05:08:04;13.70;89.10
2441;DHT22;1231;53.988;9.470;2022-09-25T05:10:35;13.70;89.20
2441;DHT22;1231;53.988;9.470;2022-09-25T05:13:05;13.70;89.20
2441;DHT22;1231;53.988;9.470;2022-09-25T05:15:38;13.70;89.10
2441;DHT22;1231;53.988;9.470;2022-09-25T05:18:15;13.80;89.10
2441;DHT22;1231;53.988;9.470;2022-09-25T05:20:47;13.80;89.00
2441;DHT22;1231;53.988;9.470;2022-09-25T05:23:18;13.80;89.10
2441;DHT22;1231;53.988;9.470;2022-09-25T05:25:52;13.70;88.90
2441;DHT22;1231;53.988;9.470;2022-09-25T05:28:24;13.70;89.00
2441;DHT22;1231;53.988;9.470;2022-09-25T05:30:58;13.70;89.00
2441;DHT22;1231;53.988;9.470;2022-09-25T05:33:33;13.70;89.00
2441;DHT22;1231;53.988;9.470;2022-09-25T05:36:05;13.60;89.10
2441;DHT22;1231;53.988;9.470;2022-09-25T05:38:38;13.70;89.20
2441;DHT22;1231;53.988;9.470;2022-09-25T05:41:10;13.60;89.10
2441;DHT22;1231;53.988;9.470;2022-09-25T05:43:42;13.70;89.20
2441;DHT22;1231;53.988;9.470;2022-09-25T05:46:14;13.70;89.20
2441;DHT22;1231;53.988;9.470;2022-09-25T05:48:45;13.70;89.20
2441;DHT22;1231;53.988;9.470;2022-09-25T05:51:16;13.70;89.20
2441;DHT22;1231;53.988;9.470;2022-09-25T05:53:46;13.70;89.20
2441;DHT22;1231;53.988;9.470;2022-09-25T05:56:17;13.70;89.30
2441;DHT22;1231;53.988;9.470;2022-09-25T05:58:47;13.70;89.30
2441;DHT22;1231;53.988;9.470;2022-09-25T06:01:18;13.70;89.20
2441;DHT22;1231;53.988;9.470;2022-09-25T06:03:49;13.70;89.20
2441;DHT22;1231;53.988;9.470;2022-09-25T06:06:19;13.70;89.20
2441;DHT22;1231;53.988;9.470;2022-09-25T06:08:52;13.70;89.20
2441;DHT22;1231;53.988;9.470;2022-09-25T06:11:23;13.70;89.20
2441;DHT22;1231;53.988;9.470;2022-09-25T06:13:54;13.70;89.20
2441;DHT22;1231;53.988;9.470;2022-09-25T06:16:24;13.70;89.20
2441;DHT22;1231;53.988;9.470;2022-09-25T06:18:56;13.70;89.20
2441;DHT22;1231;53.988;9.470;2022-09-25T06:21:27;13.70;89.30
2441;DHT22;1231;53.988;9.470;2022-09-25T06:23:57;13.70;89.30
2441;DHT22;1231;53.988;9.470;2022-09-25T06:26:28;13.70;89.30
2441;DHT22;1231;53.988;9.470;2022-09-25T06:28:58;13.70;89.40
2441;DHT22;1231;53.988;9.470;2022-09-25T06:31:30;13.70;89.50
2441;DHT22;1231;53.988;9.470;2022-09-25T06:34:00;13.70;89.50
2441;DHT22;1231;53.988;9.470;2022-09-25T06:36:34;13.70;89.50
2441;DHT22;1231;53.988;9.470;2022-09-25T06:39:05;13.70;89.50
2441;DHT22;1231;53.988;9.470;2022-09-25T06:41:36;13.80;89.60
2441;DHT22;1231;53.988;9.470;2022-09-25T06:44:07;13.80;89.50
2441;DHT22;1231;53.988;9.470;2022-09-25T06:46:38;13.90;89.40
2441;DHT22;1231;53.988;9.470;2022-09-25T06:49:11;13.80;89.40
2441;DHT22;1231;53.988;9.470;2022-09-25T06:51:42;13.90;89.50
2441;DHT22;1231;53.988;9.470;2022-09-25T06:54:13;13.90;89.30
2441;DHT22;1231;53.988;9.470;2022-09-25T06:56:47;14.00;89.10
2441;DHT22;1231;53.988;9.470;2022-09-25T06:59:18;14.00;88.90
2441;DHT22;1231;53.988;9.470;2022-09-25T07:01:49;13.90;88.90
2441;DHT22;1231;53.988;9.470;2022-09-25T07:04:19;13.90;89.00
2441;DHT22;1231;53.988;9.470;2022-09-25T07:06:50;13.90;89.00
2441;DHT22;1231;53.988;9.470;2022-09-25T07:09:25;13.90;89.10
2441;DHT22;1231;53.988;9.470;2022-09-25T07:11:56;13.90;89.00
2441;DHT22;1231;53.988;9.470;2022-09-25T07:14:26;13.90;89.00
2441;DHT22;1231;53.988;9.470;2022-09-25T07:16:57;13.90;89.00
2441;DHT22;1231;53.988;9.470;2022-09-25T07:19:28;13.90;89.00
2441;DHT22;1231;53.988;9.470;2022-09-25T07:21:58;13.90;89.00
2441;DHT22;1231;53.988;9.470;2022-09-25T07:24:29;13.90;88.90
2441;DHT22;1231;53.988;9.470;2022-09-25T07:27:00;13.90;89.20
2441;DHT22;1231;53.988;9.470;2022-09-25T07:29:30;13.90;89.10
2441;DHT22;1231;53.988;9.470;2022-09-25T07:32:01;13.90;89.10
2441;DHT22;1231;53.988;9.470;2022-09-25T07:34:33;14.00;89.10
2441;DHT22;1231;53.988;9.470;2022-09-25T07:37:05;14.00;89.00
2441;DHT22;1231;53.988;9.470;2022-09-25T07:39:36;14.00;89.00
2441;DHT22;1231;53.988;9.470;2022-09-25T07:42:06;14.10;89.10
2441;DHT22;1231;53.988;9.470;2022-09-25T07:44:37;14.10;89.00
2441;DHT22;1231;53.988;9.470;2022-09-25T07:47:09;14.10;89.10
2441;DHT22;1231;53.988;9.470;2022-09-25T07:49:42;14.20;89.00
2441;DHT22;1231;53.988;9.470;2022-09-25T07:52:13;14.20;89.00
2441;DHT22;1231;53.988;9.470;2022-09-25T07:54:43;14.30;88.90
2441;DHT22;1231;53.988;9.470;2022-09-25T07:57:14;14.40;88.80
2441;DHT22;1231;53.988;9.470;2022-09-25T07:59:46;14.40;88.50
2441;DHT22;1231;53.988;9.470;2022-09-25T08:02:17;14.40;88.40
2441;DHT22;1231;53.988;9.470;2022-09-25T08:04:47;14.40;88.40
2441;DHT22;1231;53.988;9.470;2022-09-25T08:07:18;14.40;88.50
2441;DHT22;1231;53.988;9.470;2022-09-25T08:09:48;14.40;88.30
2441;DHT22;1231;53.988;9.470;2022-09-25T08:12:20;14.40;88.20
2441;DHT22;1231;53.988;9.470;2022-09-25T08:14:53;14.40;88.30
2441;DHT22;1231;53.988;9.470;2022-09-25T08:17:26;14.40;87.70
2441;DHT22;1231;53.988;9.470;2022-09-25T08:20:01;14.40;87.30
2441;DHT22;1231;53.988;9.470;2022-09-25T08:22:31;14.40;87.30
2441;DHT22;1231;53.988;9.470;2022-09-25T08:25:03;14.40;87.10
2441;DHT22;1231;53.988;9.470;2022-09-25T08:27:35;14.30;87.00
2441;DHT22;1231;53.988;9.470;2022-09-25T08:30:10;14.30;86.90
2441;DHT22;1231;53.988;9.470;2022-09-25T08:32:42;14.30;86.70
2441;DHT22;1231;53.988;9.470;2022-09-25T08:35:12;14.30;86.70
2441;DHT22;1231;53.988;9.470;2022-09-25T08:37:43;14.30;86.60
2441;DHT22;1231;53.988;9.470;2022-09-25T08:40:23;14.20;86.80
2441;DHT22;1231;53.988;9.470;2022-09-25T08:42:56;14.30;86.80
2441;DHT22;1231;53.988;9.470;2022-09-25T08:45:33;14.30;87.00
2441;DHT22;1231;53.988;9.470;2022-09-25T08:48:28;14.40;86.80
2441;DHT22;1231;53.988;9.470;2022-09-25T08:51:18;14.40;86.70
2441;DHT22;1231;53.988;9.470;2022-09-25T08:53:49;14.40;86.50
2441;DHT22;1231;53.988;9.470;2022-09-25T08:56:20;14.40;86.40
2441;DHT22;1231;53.988;9.470;2022-09-25T08:58:55;14.30;86.40
2441;DHT22;1231;53.988;9.470;2022-09-25T09:01:46;14.30;86.40
2441;DHT22;1231;53.988;9.470;2022-09-25T09:04:46;14.30;86.30
2441;DHT22;1231;53.988;9.470;2022-09-25T09:07:24;14.30;86.40
2441;DHT22;1231;53.988;9.470;2022-09-25T09:10:02;14.30;86.40
2441;DHT22;1231;53.988;9.470;2022-09-25T09:12:52;14.30;86.40
2441;DHT22;1231;53.988;9.470;2022-09-25T09:18:35;14.40;86.40
2441;DHT22;1231;53.988;9.470;2022-09-25T09:21:14;14.40;86.30
2441;DHT22;1231;53.988;9.470;2022-09-25T09:43:01;14.80;85.50
2441;DHT22;1231;53.988;9.470;2022-09-25T09:48:25;14.90;85.20
2441;DHT22;1231;53.988;9.470;2022-09-25T09:51:06;15.00;84.90
2441;DHT22;1231;53.988;9.470;2022-09-25T09:53:45;15.00;84.80
2441;DHT22;1231;53.988;9.470;2022-09-25T09:56:27;15.00;84.80
2441;DHT22;1231;53.988;9.470;2022-09-25T09:59:02;15.10;84.70
2441;DHT22;1231;53.988;9.470;2022-09-25T10:01:37;15.10;84.60
2441;DHT22;1231;53.988;9.470;2022-09-25T10:04:22;15.20;84.60
2441;DHT22;1231;53.988;9.470;2022-09-25T10:07:03;15.30;84.30
2441;DHT22;1231;53.988;9.470;2022-09-25T10:09:35;15.30;84.00
2441;DHT22;1231;53.988;9.470;2022-09-25T10:12:32;15.30;83.50
2441;DHT22;1231;53.988;9.470;2022-09-25T10:15:13;15.30;83.20
2441;DHT22;1231;53.988;9.470;2022-09-25T10:17:44;15.30;82.90
2441;DHT22;1231;53.988;9.470;2022-09-25T10:20:21;15.30;82.90
2441;DHT22;1231;53.988;9.470;2022-09-25T10:22:53;15.30;83.10
2441;DHT22;1231;53.988;9.470;2022-09-25T10:25:37;15.40;83.30
2441;DHT22;1231;53.988;9.470;2022-09-25T10:28:30;15.50;83.40
2441;DHT22;1231;53.988;9.470;2022-09-25T10:31:04;15.50;83.00
2441;DHT22;1231;53.988;9.470;2022-09-25T10:33:36;15.60;83.10
2441;DHT22;1231;53.988;9.470;2022-09-25T10:36:07;15.60;83.20
2441;DHT22;1231;53.988;9.470;2022-09-25T10:38:45;15.70;83.20
2441;DHT22;1231;53.988;9.470;2022-09-25T10:41:19;15.70;82.50
2441;DHT22;1231;53.988;9.470;2022-09-25T10:43:51;15.80;82.40
2441;DHT22;1231;53.988;9.470;2022-09-25T10:46:31;15.80;82.30
2441;DHT22;1231;53.988;9.470;2022-09-25T10:49:22;15.90;82.00
2441;DHT22;1231;53.988;9.470;2022-09-25T10:52:13;15.90;81.20
2441;DHT22;1231;53.988;9.470;2022-09-25T10:54:44;15.90;81.00
2441;DHT22;1231;53.988;9.470;2022-09-25T10:57:34;16.00;81.10
2441;DHT22;1231;53.988;9.470;2022-09-25T11:00:21;16.10;80.70
2441;DHT22;1231;53.988;9.470;2022-09-25T11:02:57;16.20;80.30
2441;DHT22;1231;53.988;9.470;2022-09-25T11:05:34;16.30;80.40
2441;DHT22;1231;53.988;9.470;2022-09-25T11:08:06;16.50;80.10
2441;DHT22;1231;53.988;9.470;2022-09-25T11:10:53;16.60;79.40
2441;DHT22;1231;53.988;9.470;2022-09-25T11:13:29;16.60;79.10
2441;DHT22;1231;53.988;9.470;2022-09-25T11:16:07;16.70;78.70
2441;DHT22;1231;53.988;9.470;2022-09-25T11:19:10;16.70;78.60
2441;DHT22;1231;53.988;9.470;2022-09-25T11:21:49;16.80;77.60
2441;DHT22;1231;53.988;9.470;2022-09-25T11:24:57;16.70;76.90
2441;DHT22;1231;53.988;9.470;2022-09-25T11:27:44;16.70;76.70
2441;DHT22;1231;53.988;9.470;2022-09-25T11:30:18;16.80;77.30
2441;DHT22;1231;53.988;9.470;2022-09-25T11:35:52;16.90;76.90
2441;DHT22;1231;53.988;9.470;2022-09-25T11:38:36;16.90;77.10
2441;DHT22;1231;53.988;9.470;2022-09-25T11:44:24;17.00;76.60
2441;DHT22;1231;53.988;9.470;2022-09-25T11:47:19;17.10;76.60
2441;DHT22;1231;53.988;9.470;2022-09-25T11:49:55;17.00;76.20
2441;DHT22;1231;53.988;9.470;2022-09-25T11:52:37;17.00;76.40
2441;DHT22;1231;53.988;9.470;2022-09-25T11:55:37;17.00;76.60
2441;DHT22;1231;53.988;9.470;2022-09-25T12:15:51;17.10;76.90
2441;DHT22;1231;53.988;9.470;2022-09-25T12:27:19;17.30;77.50
2441;DHT22;1231;53.988;9.470;2022-09-25T12:30:12;17.30;76.90
2441;DHT22;1231;53.988;9.470;2022-09-25T12:32:57;17.30;76.60
2441;DHT22;1231;53.988;9.470;2022-09-25T12:38:31;17.30;76.70
2441;DHT22;1231;53.988;9.470;2022-09-25T12:41:12;17.30;76.90
2441;DHT22;1231;53.988;9.470;2022-09-25T12:43:55;17.30;76.90
2441;DHT22;1231;53.988;9.470;2022-09-25T12:46:43;17.40;77.10
2441;DHT22;1231;53.988;9.470;2022-09-25T12:52:23;17.50;77.50
2441;DHT22;1231;53.988;9.470;2022-09-25T12:55:24;17.60;77.30
2441;DHT22;1231;53.988;9.470;2022-09-25T13:01:08;17.70;77.20
2441;DHT22;1231;53.988;9.470;2022-09-25T13:04:04;17.70;76.80
2441;DHT22;1231;53.988;9.470;2022-09-25T13:09:58;17.80;76.00
2441;DHT22;1231;53.988;9.470;2022-09-25T13:17:37;17.90;75.70
2441;DHT22;1231;53.988;9.470;2022-09-25T13:23:02;17.90;75.60
2441;DHT22;1231;53.988;9.470;2022-09-25T13:26:07;17.80;75.60
2441;DHT22;1231;53.988;9.470;2022-09-25T13:29:02;17.90;75.80
2441;DHT22;1231;53.988;9.470;2022-09-25T13:31:34;17.80;75.50
2441;DHT22;1231;53.988;9.470;2022-09-25T13:34:11;17.80;75.10
2441;DHT22;1231;53.988;9.470;2022-09-25T13:36:53;17.80;75.40
2441;DHT22;1231;53.988;9.470;2022-09-25T13:39:34;17.80;75.30
2441;DHT22;1231;53.988;9.470;2022-09-25T13:47:57;17.70;75.30
2441;DHT22;1231;53.988;9.470;2022-09-25T13:58:21;17.80;75.20
2441;DHT22;1231;53.988;9.470;2022-09-25T14:00:57;17.70;75.10
2441;DHT22;1231;53.988;9.470;2022-09-25T14:03:38;17.70;74.80
2441;DHT22;1231;53.988;9.470;2022-09-25T14:06:31;17.70;75.00
2441;DHT22;1231;53.988;9.470;2022-09-25T14:09:07;17.70;74.60
2441;DHT22;1231;53.988;9.470;2022-09-25T14:11:42;17.70;74.30
2441;DHT22;1231;53.988;9.470;2022-09-25T14:14:25;17.70;73.60
2441;DHT22;1231;53.988;9.470;2022-09-25T14:16:57;17.70;73.80
2441;DHT22;1231;53.988;9.470;2022-09-25T14:19:34;17.80;74.30
2441;DHT22;1231;53.988;9.470;2022-09-25T14:22:06;17.90;74.00
2441;DHT22;1231;53.988;9.470;2022-09-25T14:24:43;18.00;73.80
2441;DHT22;1231;53.988;9.470;2022-09-25T14:27:25;18.10;73.20
2441;DHT22;1231;53.988;9.470;2022-09-25T14:30:06;18.10;72.90
2441;DHT22;1231;53.988;9.470;2022-09-25T14:35:38;18.00;72.20
2441;DHT22;1231;53.988;9.470;2022-09-25T14:38:21;18.00;72.40
2441;DHT22;1231;53.988;9.470;2022-09-25T14:46:29;17.90;71.80
2441;DHT22;1231;53.988;9.470;2022-09-25T14:49:27;17.80;71.90
2441;DHT22;1231;53.988;9.470;2022-09-25T14:52:02;17.70;71.80
2441;DHT22;1231;53.988;9.470;2022-09-25T14:54:37;17.70;72.00
2441;DHT22;1231;53.988;9.470;2022-09-25T14:57:10;17.70;72.30
2441;DHT22;1231;53.988;9.470;2022-09-25T14:59:51;17.60;71.60
2441;DHT22;1231;53.988;9.470;2022-09-25T15:02:32;17.50;71.70
2441;DHT22;1231;53.988;9.470;2022-09-25T15:07:57;17.60;72.40
2441;DHT22;1231;53.988;9.470;2022-09-25T15:10:36;17.50;72.40
2441;DHT22;1231;53.988;9.470;2022-09-25T15:13:14;17.50;72.20
2441;DHT22;1231;53.988;9.470;2022-09-25T15:15:53;17.50;72.40
2441;DHT22;1231;53.988;9.470;2022-09-25T15:18:45;17.40;72.30
2441;DHT22;1231;53.988;9.470;2022-09-25T15:21:33;17.40;72.30
2441;DHT22;1231;53.988;9.470;2022-09-25T15:24:09;17.30;72.60
2441;DHT22;1231;53.988;9.470;2022-09-25T15:26:49;17.20;72.60
2441;DHT22;1231;53.988;9.470;2022-09-25T15:29:22;17.10;72.80
2441;DHT22;1231;53.988;9.470;2022-09-25T15:31:53;17.10;72.90
2441;DHT22;1231;53.988;9.470;2022-09-25T15:34:26;17.00;72.10
2441;DHT22;1231;53.988;9.470;2022-09-25T15:37:21;16.90;71.80
2441;DHT22;1231;53.988;9.470;2022-09-25T15:40:00;16.80;71.80
2441;DHT22;1231;53.988;9.470;2022-09-25T15:42:31;16.60;71.20
2441;DHT22;1231;53.988;9.470;2022-09-25T15:45:23;16.50;71.50
2441;DHT22;1231;53.988;9.470;2022-09-25T15:47:58;16.40;71.90
2441;DHT22;1231;53.988;9.470;2022-09-25T15:50:30;16.30;72.20
2441;DHT22;1231;53.988;9.470;2022-09-25T15:53:01;16.30;72.30
2441;DHT22;1231;53.988;9.470;2022-09-25T15:55:32;16.20;72.40
2441;DHT22;1231;53.988;9.470;2022-09-25T15:58:06;16.20;72.80
2441;DHT22;1231;53.988;9.470;2022-09-25T16:00:57;16.10;72.80
2441;DHT22;1231;53.988;9.470;2022-09-25T16:03:50;16.10;72.90
2441;DHT22;1231;53.988;9.470;2022-09-25T16:06:42;16.10;73.20
2441;DHT22;1231;53.988;9.470;2022-09-25T16:09:32;16.10;73.30
2441;DHT22;1231;53.988;9.470;2022-09-25T16:12:17;16.10;73.30
2441;DHT22;1231;53.988;9.470;2022-09-25T16:14:49;16.20;73.10
2441;DHT22;1231;53.988;9.470;2022-09-25T16:17:36;16.30;73.30
2441;DHT22;1231;53.988;9.470;2022-09-25T16:22:55;16.50;73.00
2441;DHT22;1231;53.988;9.470;2022-09-25T16:25:42;16.50;72.90
2441;DHT22;1231;53.988;9.470;2022-09-25T16:28:19;16.40;72.20
2441;DHT22;1231;53.988;9.470;2022-09-25T16:31:11;16.40;72.10
2441;DHT22;1231;53.988;9.470;2022-09-25T16:33:48;16.30;72.00
2441;DHT22;1231;53.988;9.470;2022-09-25T16:36:20;16.30;72.00
2441;DHT22;1231;53.988;9.470;2022-09-25T16:41:42;16.20;72.40
2441;DHT22;1231;53.988;9.470;2022-09-25T16:49:22;15.80;72.50
2441;DHT22;1231;53.988;9.470;2022-09-25T16:51:54;15.60;72.80
2441;DHT22;1231;53.988;9.470;2022-09-25T16:54:27;15.50;73.00
2441;DHT22;1231;53.988;9.470;2022-09-25T16:57:00;15.40;73.30
2441;DHT22;1231;53.988;9.470;2022-09-25T16:59:31;15.20;73.70
2441;DHT22;1231;53.988;9.470;2022-09-25T17:02:16;15.10;73.70
2441;DHT22;1231;53.988;9.470;2022-09-25T17:04:48;15.00;73.90
2441;DHT22;1231;53.988;9.470;2022-09-25T17:07:20;14.90;74.10
2441;DHT22;1231;53.988;9.470;2022-09-25T17:09:50;14.80;74.40
2441;DHT22;1231;53.988;9.470;2022-09-25T17:12:22;14.60;74.60
2441;DHT22;1231;53.988;9.470;2022-09-25T17:14:57;14.50;74.70
2441;DHT22;1231;53.988;9.470;2022-09-25T17:17:27;14.40;74.80
2441;DHT22;1231;53.988;9.470;2022-09-25T17:20:00;14.30;75.00
2441;DHT22;1231;53.988;9.470;2022-09-25T17:22:31;14.20;75.20
2441;DHT22;1231;53.988;9.470;2022-09-25T17:25:04;14.10;75.40
2441;DHT22;1231;53.988;9.470;2022-09-25T17:27:41;14.00;75.60
2441;DHT22;1231;53.988;9.470;2022-09-25T17:30:11;14.00;75.80
2441;DHT22;1231;53.988;9.470;2022-09-25T17:32:42;13.90;76.10
2441;DHT22;1231;53.988;9.470;2022-09-25T17:35:37;13.80;76.30
2441;DHT22;1231;53.988;9.470;2022-09-25T17:38:09;13.70;76.50
2441;DHT22;1231;53.988;9.470;2022-09-25T17:40:43;13.60;76.70
2441;DHT22;1231;53.988;9.470;2022-09-25T17:43:14;13.60;76.90
2441;DHT22;1231;53.988;9.470;2022-09-25T17:45:50;13.50;77.10
2441;DHT22;1231;53.988;9.470;2022-09-25T17:48:28;13.50;77.30
2441;DHT22;1231;53.988;9.470;2022-09-25T17:51:02;13.40;77.60
2441;DHT22;1231;53.988;9.470;2022-09-25T17:53:33;13.30;77.70
2441;DHT22;1231;53.988;9.470;2022-09-25T17:56:03;13.30;77.80
2441;DHT22;1231;53.988;9.470;2022-09-25T17:58:34;13.20;78.00
2441;DHT22;1231;53.988;9.470;2022-09-25T18:01:15;13.10;78.10
2441;DHT22;1231;53.988;9.470;2022-09-25T18:04:01;13.10;78.20
2441;DHT22;1231;53.988;9.470;2022-09-25T18:06:32;13.00;78.50
2441;DHT22;1231;53.988;9.470;2022-09-25T18:09:02;12.90;78.60
2441;DHT22;1231;53.988;9.470;2022-09-25T18:11:33;12.90;78.70
2441;DHT22;1231;53.988;9.470;2022-09-25T18:14:03;12.80;78.80
2441;DHT22;1231;53.988;9.470;2022-09-25T18:16:34;12.80;78.90
2441;DHT22;1231;53.988;9.470;2022-09-25T18:19:05;12.70;79.10
2441;DHT22;1231;53.988;9.470;2022-09-25T18:21:54;12.70;79.20
2441;DHT22;1231;53.988;9.470;2022-09-25T18:24:46;12.60;79.30
2441;DHT22;1231;53.988;9.470;2022-09-25T18:27:17;12.60;79.40
2441;DHT22;1231;53.988;9.470;2022-09-25T18:29:48;12.50;79.50
2441;DHT22;1231;53.988;9.470;2022-09-25T18:32:19;12.50;79.60
2441;DHT22;1231;53.988;9.470;2022-09-25T18:34:50;12.40;79.60
2441;DHT22;1231;53.988;9.470;2022-09-25T18:37:20;12.40;79.60
2441;DHT22;1231;53.988;9.470;2022-09-25T18:39:51;12.30;79.80
2441;DHT22;1231;53.988;9.470;2022-09-25T18:42:22;12.30;79.80
2441;DHT22;1231;53.988;9.470;2022-09-25T18:44:52;12.20;79.80
2441;DHT22;1231;53.988;9.470;2022-09-25T18:47:23;12.20;79.80
2441;DHT22;1231;53.988;9.470;2022-09-25T18:49:53;12.20;79.90
2441;DHT22;1231;53.988;9.470;2022-09-25T18:52:24;12.10;79.90
2441;DHT22;1231;53.988;9.470;2022-09-25T18:54:55;12.00;79.90
2441;DHT22;1231;53.988;9.470;2022-09-25T18:57:26;12.00;79.80
2441;DHT22;1231;53.988;9.470;2022-09-25T18:59:57;11.90;79.90
2441;DHT22;1231;53.988;9.470;2022-09-25T19:02:29;11.80;80.00
2441;DHT22;1231;53.988;9.470;2022-09-25T19:05:00;11.70;80.10
2441;DHT22;1231;53.988;9.470;2022-09-25T19:07:31;11.60;80.30
2441;DHT22;1231;53.988;9.470;2022-09-25T19:10:02;11.60;80.40
2441;DHT22;1231;53.988;9.470;2022-09-25T19:12:38;11.50;80.50
2441;DHT22;1231;53.988;9.470;2022-09-25T19:15:08;11.50;80.70